HUEN

Entebbe International Airport

Kampala, Uganda
METAR HUEN 201230Z 19007KT 9000 FEW023 FEW025CB BKN150 25/18 Q1014.9 883.7 HZ NOSIG
Observed Flight Rules
Jan-20 @ 12:30 UTC (34 minutes ago) Visual Flight Rules
Wind Visibility Clouds Conditions
190° at 7 knots 8,996 meters
  • Few at 2,300' AGL
  • Few at 2,500' AGL
  • Broken at 15,000' AGL
  • Haze
Temperatures Readings
Current 25°C / 77°F
Dewpoint 18°C / 64°F
Humidity 65%
Altimeter 29.97" Hg
Pressure 1015 hPa
Elevation 1155
METAR HUEN 201230Z 19007KT 9000 FEW023 FEW025CB BKN150 25/18 Q1014.9 883.7 HZ NOSIG
Observed Flight Rules
Jan-20 @ 12:30 UTC
(34 minutes ago)
VFR
Wind Visibility
190° at 7 knots 8,996 meters
Clouds
  • Few at 2,300' AGL
  • Few at 2,500' AGL
  • Broken at 15,000' AGL
Conditions
  • Haze
Temperature Dewpoint
25°C / 77°F 18°C / 64°F
Humidity Altimeter Pressure
65% 29.97" Hg 1015 hPa